Terminal Aerodrome Forecast
Issued by NWS

Home | Current Version | Previous Version | Graphics & Text | Print | Product List | Glossary On
Versions: 1 2 3 4 5 6 7 8 9 10 11 12 13 14 15 16 17 18 19 20
000
FTUS43 KICT 221856 AAA
TAFRSL
TAF AMD
KRSL 221856Z 2219/2318 19017G23KT P6SM SKC
     FM230200 18009KT 5SM BR SCT006 OVC009
     FM230400 18009KT 2SM BR SCT003 OVC006
     FM231400 34026G33KT P6SM VCSH BKN015=

USA.gov is the U.S. government's official web portal to all federal, state and local government web resources and services.